createdAt,value
2019-02-27T00:00:48.985Z,101434.64
2019-02-27T00:03:17.667Z,101432.16
2019-02-27T00:05:46.204Z,101432.73
2019-02-27T00:08:14.927Z,101430.73
2019-02-27T00:10:42.995Z,101431.14
2019-02-27T00:13:11.188Z,101435.78
2019-02-27T00:15:40.810Z,101429.03
2019-02-27T00:18:08.998Z,101428.92
2019-02-27T00:20:37.740Z,101428.80
2019-02-27T00:23:06.005Z,101427.06
2019-02-27T00:25:36.123Z,101424.23
2019-02-27T00:28:05.051Z,101421.28
2019-02-27T00:30:33.142Z,101422.64
2019-02-27T00:33:01.205Z,101421.06
2019-02-27T00:35:29.236Z,101420.73
2019-02-27T00:37:57.739Z,101414.72
2019-02-27T00:40:25.805Z,101411.98
2019-02-27T00:42:54.452Z,101407.59
2019-02-27T00:45:23.015Z,101405.25
2019-02-27T00:47:53.304Z,101404.16
2019-02-27T00:50:21.050Z,101403.82
2019-02-27T00:52:51.188Z,101399.68
2019-02-27T00:55:19.225Z,101399.33
2019-02-27T00:57:47.422Z,101396.47
2019-02-27T01:00:16.522Z,101400.39
2019-02-27T01:02:44.797Z,101385.92
2019-02-27T01:05:13.366Z,101394.24
2019-02-27T01:07:41.781Z,101385.45
2019-02-27T01:10:12.290Z,101383.45
2019-02-27T01:12:40.256Z,101384.76
2019-02-27T01:15:10.533Z,101384.98
2019-02-27T01:17:38.547Z,101381.67
2019-02-27T01:20:11.222Z,101386.20
2019-02-27T01:22:37.410Z,101381.20
2019-02-27T01:25:06.174Z,101380.38
2019-02-27T01:27:37.899Z,101380.02
2019-02-27T01:30:05.666Z,101376.71
2019-02-27T01:32:34.103Z,101367.45
2019-02-27T01:35:02.163Z,101369.23
2019-02-27T01:37:31.641Z,101368.05
2019-02-27T01:40:00.362Z,101365.67
2019-02-27T01:42:32.759Z,101367.93
2019-02-27T01:45:00.348Z,101369.59
2019-02-27T01:47:30.594Z,101375.19
2019-02-27T01:49:58.630Z,101370.67
2019-02-27T01:52:27.907Z,101368.31
2019-02-27T01:54:56.089Z,101361.78
2019-02-27T01:57:24.123Z,101355.61
2019-02-27T01:59:52.155Z,101363.91
2019-02-27T02:02:20.240Z,101353.95
2019-02-27T02:04:52.941Z,101355.15
2019-02-27T02:07:19.863Z,101351.45
2019-02-27T02:09:52.141Z,101357.62
2019-02-27T02:12:26.621Z,101350.88
2019-02-27T02:15:29.862Z,101345.05
2019-02-27T02:18:54.715Z,101339.48
2019-02-27T02:22:33.270Z,101340.78
2019-02-27T02:26:08.620Z,101341.16
2019-02-27T02:29:45.865Z,101341.02
2019-02-27T02:32:52.344Z,101331.75
2019-02-27T02:36:04.157Z,101328.92
2019-02-27T02:39:46.279Z,101323.70
2019-02-27T02:43:03.187Z,101322.05
2019-02-27T02:46:45.547Z,101320.52
2019-02-27T02:50:23.380Z,101316.34
2019-02-27T02:53:37.196Z,101308.52
2019-02-27T02:57:00.129Z,101309.59
2019-02-27T03:00:07.685Z,101307.23
2019-02-27T03:03:06.871Z,101301.75
2019-02-27T03:06:13.510Z,101292.88
2019-02-27T03:09:16.124Z,101285.53
2019-02-27T03:12:29.878Z,101286.00
2019-02-27T03:16:04.617Z,101284.23
2019-02-27T03:19:41.272Z,101283.28
2019-02-27T03:23:05.646Z,101270.45
2019-02-27T03:25:54.475Z,101280.78
2019-02-27T03:29:24.762Z,101282.56
2019-02-27T03:32:45.649Z,101279.56
2019-02-27T03:35:51.593Z,101280.77
2019-02-27T03:38:59.189Z,101277.52
2019-02-27T03:42:16.013Z,101284.98
2019-02-27T03:45:45.570Z,101290.20
2019-02-27T03:48:51.205Z,101278.59
2019-02-27T03:52:28.180Z,101288.89
2019-02-27T03:55:51.054Z,101291.97
2019-02-27T03:59:12.292Z,101291.13
2019-02-27T04:02:44.134Z,101294.66
2019-02-27T04:06:24.922Z,101286.38
2019-02-27T04:08:57.346Z,101289.67
2019-02-27T04:11:26.491Z,101284.32
2019-02-27T04:13:59.574Z,101285.53
2019-02-27T04:16:29.307Z,101279.95
2019-02-27T04:19:03.022Z,101286.38
2019-02-27T04:21:27.517Z,101289.67
2019-02-27T04:23:55.555Z,101291.58
2019-02-27T04:26:24.709Z,101287.31
2019-02-27T04:28:54.294Z,101288.38
2019-02-27T04:31:22.367Z,101288.25
2019-02-27T04:33:50.541Z,101287.42
2019-02-27T04:36:18.661Z,101295.59
2019-02-27T04:38:46.898Z,101295.12
2019-02-27T04:41:17.863Z,101294.29
2019-02-27T04:43:44.921Z,101293.81
2019-02-27T04:46:13.042Z,101289.67
2019-02-27T04:48:41.459Z,101290.27
2019-02-27T04:51:10.623Z,101292.40
2019-02-27T04:53:40.712Z,101294.05
2019-02-27T04:56:08.658Z,101295.84
2019-02-27T04:58:37.260Z,101296.06
2019-02-27T05:01:05.597Z,101295.03
2019-02-27T05:03:33.699Z,101295.38
2019-02-27T05:06:01.740Z,101294.08
2019-02-27T05:08:30.874Z,101294.64
2019-02-27T05:10:59.015Z,101281.27
2019-02-27T05:13:27.419Z,101288.13
2019-02-27T05:15:55.663Z,101291.20
2019-02-27T05:18:24.073Z,101292.28
2019-02-27T05:20:52.943Z,101294.88
2019-02-27T05:23:21.294Z,101298.09
2019-02-27T05:25:49.405Z,101295.69
2019-02-27T05:28:17.546Z,101295.58
2019-02-27T05:30:49.917Z,101293.77
2019-02-27T05:33:18.490Z,101299.55
2019-02-27T05:35:47.198Z,101290.70
2019-02-27T05:38:15.287Z,101301.30
2019-02-27T05:40:44.480Z,101300.19
2019-02-27T05:43:13.851Z,101302.88
2019-02-27T05:45:43.276Z,101305.32
2019-02-27T05:48:12.747Z,101294.52
2019-02-27T05:50:40.855Z,101299.13
2019-02-27T05:53:10.619Z,101301.20
2019-02-27T05:55:39.223Z,101298.02
2019-02-27T05:58:09.622Z,101293.64
2019-02-27T06:00:37.756Z,101293.64
2019-02-27T06:03:05.895Z,101290.41
2019-02-27T06:05:35.920Z,101292.53
2019-02-27T06:08:06.014Z,101291.70
2019-02-27T06:10:34.180Z,101290.05
2019-02-27T06:13:02.332Z,101291.70
2019-02-27T06:15:30.414Z,101295.97
2019-02-27T06:17:58.470Z,101297.63
2019-02-27T06:20:26.726Z,101297.27
2019-02-27T06:22:54.792Z,101298.56
2019-02-27T06:25:23.931Z,101296.08
2019-02-27T06:27:52.350Z,101294.06
2019-02-27T06:30:21.501Z,101289.81
2019-02-27T06:32:49.636Z,101286.38
2019-02-27T06:35:17.937Z,101284.60
2019-02-27T06:37:50.476Z,101277.63
2019-02-27T06:40:18.077Z,101267.47
2019-02-27T06:42:51.324Z,101271.25
2019-02-27T06:45:20.885Z,101270.70
2019-02-27T06:47:50.219Z,101272.83
2019-02-27T06:50:18.282Z,101271.16
2019-02-27T06:52:46.852Z,101277.20
2019-02-27T06:55:14.947Z,101282.41
2019-02-27T06:57:43.014Z,101279.21
2019-02-27T07:00:17.167Z,101281.22
2019-02-27T07:02:45.244Z,101276.30
2019-02-27T07:05:14.158Z,101272.40
2019-02-27T07:07:42.337Z,101271.25
2019-02-27T07:10:12.213Z,101272.11
2019-02-27T07:12:40.320Z,101271.20
2019-02-27T07:15:12.906Z,101271.47
2019-02-27T07:17:41.572Z,101265.59
2019-02-27T07:20:10.754Z,101265.29
2019-02-27T07:22:38.914Z,101265.81
2019-02-27T07:25:08.171Z,101260.97
2019-02-27T07:27:36.304Z,101262.94
2019-02-27T07:30:07.483Z,101260.11
2019-02-27T07:32:35.995Z,101259.80
2019-02-27T07:35:04.448Z,101260.18
2019-02-27T07:37:32.620Z,101256.12
2019-02-27T07:40:01.182Z,101257.66
2019-02-27T07:42:32.098Z,101267.81
2019-02-27T07:45:00.828Z,101265.39
2019-02-27T07:47:29.019Z,101265.75
2019-02-27T07:49:57.095Z,101269.05
2019-02-27T07:52:25.160Z,101273.17
2019-02-27T07:54:54.930Z,101270.39
2019-02-27T07:57:23.282Z,101263.21
2019-02-27T07:59:51.394Z,101259.64
2019-02-27T08:02:19.495Z,101260.86
2019-02-27T08:04:47.874Z,101260.05
2019-02-27T08:07:17.111Z,101251.66
2019-02-27T08:09:45.345Z,101250.66
2019-02-27T08:12:13.593Z,101247.15
2019-02-27T08:14:43.349Z,101242.41
2019-02-27T08:17:17.757Z,101240.11
2019-02-27T08:19:42.846Z,101243.61
2019-02-27T08:22:14.626Z,101237.03
2019-02-27T08:24:43.420Z,101238.59
2019-02-27T08:27:11.429Z,101240.22
2019-02-27T08:29:39.695Z,101236.39
2019-02-27T08:32:07.755Z,101236.66
2019-02-27T08:34:36.244Z,101232.09
2019-02-27T08:37:04.302Z,101225.34
2019-02-27T08:39:33.183Z,101222.75
2019-02-27T08:42:03.551Z,101214.48
2019-02-27T08:44:31.235Z,101207.08
2019-02-27T08:47:01.414Z,101208.22
2019-02-27T08:49:31.964Z,101204.44
2019-02-27T08:52:01.241Z,101202.81
2019-02-27T08:54:32.216Z,101202.40
2019-02-27T08:56:59.266Z,101196.70
2019-02-27T08:59:27.315Z,101188.59
2019-02-27T09:01:56.518Z,101189.79
2019-02-27T09:04:24.561Z,101186.28
2019-02-27T09:06:53.955Z,101178.50
2019-02-27T09:09:21.998Z,101183.16
2019-02-27T09:11:50.692Z,101186.33
2019-02-27T09:14:18.784Z,101186.65
2019-02-27T09:16:46.866Z,101175.46
2019-02-27T09:19:16.299Z,101170.98
2019-02-27T09:21:44.368Z,101172.87
2019-02-27T09:24:12.464Z,101170.66
2019-02-27T09:26:42.347Z,101169.27
2019-02-27T09:29:10.478Z,101167.08
2019-02-27T09:31:38.622Z,101165.31
2019-02-27T09:34:07.019Z,101164.44
2019-02-27T09:36:35.085Z,101161.59
2019-02-27T09:39:04.872Z,101156.26
2019-02-27T09:41:34.159Z,101150.05
2019-02-27T09:44:02.364Z,101151.41
2019-02-27T09:46:30.625Z,101158.46
2019-02-27T09:48:58.682Z,101151.25
2019-02-27T09:51:27.056Z,101153.27
2019-02-27T09:53:55.240Z,101144.24
2019-02-27T09:56:26.042Z,101144.98
2019-02-27T09:58:54.172Z,101146.27
2019-02-27T10:01:22.729Z,101146.04
2019-02-27T10:03:52.114Z,101137.73
2019-02-27T10:06:21.364Z,101141.50
2019-02-27T10:08:49.388Z,101144.17
2019-02-27T10:11:19.538Z,101135.63
2019-02-27T10:13:47.391Z,101135.88
2019-02-27T10:16:15.477Z,101126.67
2019-02-27T10:18:44.749Z,101124.95
2019-02-27T10:21:12.788Z,101123.73
2019-02-27T10:23:40.825Z,101111.92
2019-02-27T10:26:08.995Z,101104.45
2019-02-27T10:28:39.697Z,101103.37
2019-02-27T10:31:08.473Z,101104.41
2019-02-27T10:33:36.777Z,101098.94
2019-02-27T10:36:06.068Z,101093.73
2019-02-27T10:38:40.093Z,101084.80
2019-02-27T10:41:04.780Z,101084.20
2019-02-27T10:43:32.840Z,101088.20
2019-02-27T10:46:00.934Z,101082.81
2019-02-27T10:48:29.352Z,101074.28
2019-02-27T10:50:57.525Z,101071.09
2019-02-27T10:53:27.440Z,101067.06
2019-02-27T10:55:56.155Z,101057.97
2019-02-27T10:58:24.719Z,101063.50
2019-02-27T11:00:54.664Z,101061.41
2019-02-27T11:03:27.122Z,101060.67
2019-02-27T11:05:55.560Z,101056.67
2019-02-27T11:08:28.637Z,101050.00
2019-02-27T11:10:55.189Z,101041.92
2019-02-27T11:13:23.719Z,101038.42
2019-02-27T11:15:51.827Z,101031.13
2019-02-27T11:18:19.898Z,101033.84
2019-02-27T11:20:49.022Z,101035.18
2019-02-27T11:23:17.213Z,101035.72
2019-02-27T11:25:45.325Z,101024.31
2019-02-27T11:28:13.659Z,101018.28
2019-02-27T11:30:43.488Z,101013.84
2019-02-27T11:33:11.559Z,101002.55
2019-02-27T11:35:40.698Z,100998.30
2019-02-27T11:38:09.021Z,100989.08
2019-02-27T11:40:41.779Z,100985.59
2019-02-27T11:43:07.641Z,100982.64
2019-02-27T11:45:39.168Z,100981.08
2019-02-27T11:48:07.342Z,100969.37
2019-02-27T11:50:35.841Z,100961.23
2019-02-27T11:53:04.406Z,100963.69
2019-02-27T11:55:32.547Z,100955.25
2019-02-27T11:58:04.556Z,100955.20
2019-02-27T12:00:31.132Z,100948.91
2019-02-27T12:02:59.599Z,100944.44
2019-02-27T12:05:33.686Z,100944.61
2019-02-27T12:07:58.173Z,100943.89
2019-02-27T12:10:26.971Z,100940.05
2019-02-27T12:12:59.556Z,100943.25
2019-02-27T12:15:27.444Z,100938.89
2019-02-27T12:17:59.720Z,100939.25
2019-02-27T12:20:27.197Z,100935.73
2019-02-27T12:22:56.092Z,100930.12
2019-02-27T12:25:29.190Z,100926.98
2019-02-27T12:27:55.712Z,100922.23
2019-02-27T12:30:24.544Z,100929.17
2019-02-27T12:32:55.588Z,100926.34
2019-02-27T12:35:25.514Z,100914.05
2019-02-27T12:37:53.833Z,100914.46
2019-02-27T12:40:24.956Z,100906.94
2019-02-27T12:42:52.333Z,100903.92
2019-02-27T12:45:21.639Z,100893.58
2019-02-27T12:47:51.209Z,100887.80
2019-02-27T12:50:20.913Z,100890.95
2019-02-27T12:52:49.290Z,100888.73
2019-02-27T12:55:20.350Z,100878.39
2019-02-27T12:57:49.539Z,100881.66
2019-02-27T13:00:22.057Z,100878.39
2019-02-27T13:02:50.091Z,100864.53
2019-02-27T13:05:18.603Z,100867.16
2019-02-27T13:07:46.664Z,100867.03
2019-02-27T13:10:19.734Z,100868.45
2019-02-27T13:12:51.888Z,100860.41
2019-02-27T13:15:21.405Z,100858.02
2019-02-27T13:17:50.094Z,100855.90
2019-02-27T13:20:21.043Z,100852.73
2019-02-27T13:22:49.068Z,100847.61
2019-02-27T13:25:17.397Z,100847.53
2019-02-27T13:27:45.430Z,100845.78
2019-02-27T13:30:17.274Z,100837.66
2019-02-27T13:32:45.631Z,100828.47
2019-02-27T13:35:14.030Z,100827.58
2019-02-27T13:37:44.648Z,100819.67
2019-02-27T13:40:17.834Z,100818.46
2019-02-27T13:42:45.870Z,100812.70
2019-02-27T13:45:17.057Z,100807.45
2019-02-27T13:47:45.407Z,100804.75
2019-02-27T13:50:13.937Z,100803.73
2019-02-27T13:52:44.913Z,100798.05
2019-02-27T13:55:13.519Z,100796.59
2019-02-27T13:57:41.896Z,100793.48
2019-02-27T14:00:20.837Z,100791.38
2019-02-27T14:02:50.735Z,100788.00
2019-02-27T14:05:18.808Z,100781.27
2019-02-27T14:07:47.073Z,100782.50
2019-02-27T14:10:19.824Z,100777.69
2019-02-27T14:12:47.902Z,100778.56
2019-02-27T14:15:16.605Z,100772.96
2019-02-27T14:17:44.774Z,100766.81
2019-02-27T14:20:15.504Z,100764.02
2019-02-27T14:22:45.118Z,100767.22
2019-02-27T14:25:16.938Z,100761.31
2019-02-27T14:27:47.440Z,100756.23
2019-02-27T14:30:21.570Z,100757.41
2019-02-27T14:32:49.718Z,100748.52
2019-02-27T14:35:19.044Z,100748.30
2019-02-27T14:37:50.144Z,100743.78
2019-02-27T14:40:18.859Z,100748.74
2019-02-27T14:42:47.070Z,100744.77
2019-02-27T14:45:17.903Z,100741.63
2019-02-27T14:47:47.359Z,100740.89
2019-02-27T14:50:18.012Z,100734.69
2019-02-27T14:52:46.230Z,100740.11
2019-02-27T14:55:15.122Z,100737.68
2019-02-27T14:57:43.322Z,100732.78
2019-02-27T15:00:18.984Z,100730.42
2019-02-27T15:02:47.604Z,100727.49
2019-02-27T15:05:15.794Z,100727.97
2019-02-27T15:07:43.934Z,100723.88
2019-02-27T15:10:13.377Z,100725.13
2019-02-27T15:12:41.426Z,100725.25
2019-02-27T15:15:13.977Z,100719.16
2019-02-27T15:17:42.021Z,100720.33
2019-02-27T15:20:11.961Z,100718.08
2019-02-27T15:22:40.412Z,100715.30
2019-02-27T15:25:11.109Z,100719.24
2019-02-27T15:27:39.418Z,100712.88
2019-02-27T15:30:12.816Z,100715.97
2019-02-27T15:32:40.078Z,100713.66
2019-02-27T15:35:08.488Z,100707.58
2019-02-27T15:37:38.029Z,100705.73
2019-02-27T15:40:07.693Z,100699.89
2019-02-27T15:42:36.666Z,100699.41
2019-02-27T15:45:09.977Z,100697.27
2019-02-27T15:47:37.300Z,100699.47
2019-02-27T15:50:07.476Z,100693.30
2019-02-27T15:52:38.170Z,100692.53
2019-02-27T15:55:05.948Z,100688.72
2019-02-27T15:57:34.117Z,100691.44
2019-02-27T16:00:02.408Z,100685.22
2019-02-27T16:02:34.093Z,100682.73
2019-02-27T16:05:05.272Z,100684.27
2019-02-27T16:07:33.703Z,100689.08
2019-02-27T16:10:06.556Z,100687.31
2019-02-27T16:12:32.222Z,100690.17
2019-02-27T16:15:00.448Z,100681.16
2019-02-27T16:17:30.962Z,100684.48
2019-02-27T16:19:58.647Z,100680.31
2019-02-27T16:22:30.215Z,100681.48
2019-02-27T16:24:58.678Z,100682.88
2019-02-27T16:27:27.457Z,100677.34
2019-02-27T16:29:56.713Z,100668.83
2019-02-27T16:32:25.892Z,100669.48
2019-02-27T16:34:58.781Z,100663.63
2019-02-27T16:37:27.182Z,100658.05
2019-02-27T16:39:55.414Z,100659.18
2019-02-27T16:42:23.597Z,100657.33
2019-02-27T16:44:54.445Z,100660.30
2019-02-27T16:47:23.741Z,100657.34
2019-02-27T16:49:52.016Z,100655.73
2019-02-27T16:52:20.136Z,100651.91
2019-02-27T16:54:48.274Z,100652.08
2019-02-27T16:57:21.216Z,100646.61
2019-02-27T16:59:46.270Z,100653.47
2019-02-27T17:02:15.646Z,100653.03
2019-02-27T17:04:43.696Z,100651.27
2019-02-27T17:07:11.864Z,100653.51
2019-02-27T17:09:43.808Z,100649.28
2019-02-27T17:12:11.031Z,100648.49
2019-02-27T17:14:39.436Z,100645.48
2019-02-27T17:17:07.957Z,100650.55
2019-02-27T17:19:37.328Z,100652.88
2019-02-27T17:22:05.536Z,100659.81
2019-02-27T17:24:33.665Z,100657.09
2019-02-27T17:27:01.851Z,100655.66
2019-02-27T17:29:31.113Z,100660.16
2019-02-27T17:31:59.431Z,100663.73
2019-02-27T17:34:27.586Z,100659.62
2019-02-27T17:36:55.656Z,100659.48
2019-02-27T17:39:27.693Z,100654.27
2019-02-27T17:41:53.953Z,100658.38
2019-02-27T17:44:22.126Z,100662.48
2019-02-27T17:46:51.695Z,100665.55
2019-02-27T17:49:22.170Z,100668.03
2019-02-27T17:51:51.279Z,100669.12
2019-02-27T17:54:19.618Z,100659.36
2019-02-27T17:56:50.024Z,100658.27
2019-02-27T17:59:18.181Z,100660.81
2019-02-27T18:01:47.027Z,100663.33
2019-02-27T18:04:15.558Z,100659.83
2019-02-27T18:06:43.913Z,100659.28
2019-02-27T18:09:11.983Z,100658.73
2019-02-27T18:11:42.142Z,100656.49
2019-02-27T18:14:10.281Z,100663.84
2019-02-27T18:16:39.562Z,100659.75
2019-02-27T18:19:07.692Z,100659.88
2019-02-27T18:21:36.129Z,100654.81
2019-02-27T18:24:04.806Z,100653.50
2019-02-27T18:26:32.979Z,100652.52
2019-02-27T18:29:01.207Z,100644.59
2019-02-27T18:31:32.076Z,100647.34
2019-02-27T18:34:00.743Z,100649.03
2019-02-27T18:36:28.940Z,100641.73
2019-02-27T18:39:01.647Z,100646.20
2019-02-27T18:41:27.690Z,100640.06
2019-02-27T18:43:55.827Z,100643.97
2019-02-27T18:46:24.814Z,100648.57
2019-02-27T18:48:53.782Z,100647.25
2019-02-27T18:51:22.253Z,100649.36
2019-02-27T18:53:50.433Z,100646.16
2019-02-27T18:56:18.638Z,100642.16
2019-02-27T18:58:47.935Z,100641.23
2019-02-27T19:01:16.188Z,100640.99
2019-02-27T19:03:44.741Z,100639.91
2019-02-27T19:06:13.128Z,100642.31
2019-02-27T19:08:41.359Z,100640.44
2019-02-27T19:11:12.901Z,100639.64
2019-02-27T19:13:40.987Z,100640.52
2019-02-27T19:16:11.006Z,100635.45
2019-02-27T19:18:41.178Z,100637.45
2019-02-27T19:21:09.877Z,100634.69
2019-02-27T19:23:38.211Z,100633.88
2019-02-27T19:26:09.355Z,100634.89
2019-02-27T19:28:38.416Z,100632.30
2019-02-27T19:31:08.695Z,100638.58
2019-02-27T19:33:37.472Z,100632.69
2019-02-27T19:36:05.674Z,100630.11
2019-02-27T19:38:33.902Z,100628.34
2019-02-27T19:41:04.078Z,100626.69
2019-02-27T19:43:32.560Z,100626.55
2019-02-27T19:46:00.844Z,100623.46
2019-02-27T19:48:30.204Z,100626.63
2019-02-27T19:50:58.336Z,100617.92
2019-02-27T19:53:27.403Z,100609.56
2019-02-27T19:56:00.739Z,100600.89
2019-02-27T19:58:27.548Z,100598.44
2019-02-27T20:00:57.325Z,100599.78
2019-02-27T20:03:25.781Z,100596.02
2019-02-27T20:05:56.001Z,100600.13
2019-02-27T20:08:26.453Z,100598.31
2019-02-27T20:10:54.809Z,100601.96
2019-02-27T20:13:24.710Z,100596.87
2019-02-27T20:15:55.581Z,100594.56
2019-02-27T20:18:24.749Z,100589.83
2019-02-27T20:20:54.380Z,100584.56
2019-02-27T20:23:25.754Z,100590.66
2019-02-27T20:25:52.876Z,100587.03
2019-02-27T20:28:21.097Z,100589.34
2019-02-27T20:30:49.702Z,100583.77
2019-02-27T20:33:18.419Z,100581.14
2019-02-27T20:35:46.849Z,100591.31
2019-02-27T20:38:16.984Z,100592.30
2019-02-27T20:40:45.671Z,100594.61
2019-02-27T20:43:14.012Z,100592.63
2019-02-27T20:45:43.644Z,100584.59
2019-02-27T20:48:12.147Z,100586.25
2019-02-27T20:50:41.813Z,100585.25
2019-02-27T20:53:10.941Z,100578.20
2019-02-27T20:55:39.109Z,100574.87
2019-02-27T20:58:07.750Z,100573.08
2019-02-27T21:00:37.123Z,100576.69
2019-02-27T21:03:05.746Z,100578.97
2019-02-27T21:05:34.126Z,100582.93
2019-02-27T21:08:02.739Z,100583.56
2019-02-27T21:10:31.392Z,100583.07
2019-02-27T21:13:01.008Z,100577.83
2019-02-27T21:15:32.110Z,100574.55
2019-02-27T21:17:59.393Z,100577.66
2019-02-27T21:20:27.654Z,100575.52
2019-02-27T21:22:55.735Z,100578.61
2019-02-27T21:25:23.898Z,100576.81
2019-02-27T21:27:52.576Z,100576.47
2019-02-27T21:30:21.168Z,100577.30
2019-02-27T21:32:49.307Z,100579.91
2019-02-27T21:35:17.777Z,100579.39
2019-02-27T21:37:45.942Z,100576.58
2019-02-27T21:40:14.920Z,100575.77
2019-02-27T21:42:43.089Z,100570.83
2019-02-27T21:45:14.215Z,100570.83
2019-02-27T21:47:43.576Z,100571.16
2019-02-27T21:50:14.709Z,100566.05
2019-02-27T21:52:42.848Z,100566.52
2019-02-27T21:55:13.658Z,100561.28
2019-02-27T21:57:42.088Z,100563.72
2019-02-27T22:00:18.357Z,100562.90
2019-02-27T22:02:46.718Z,100555.98
2019-02-27T22:05:18.522Z,100562.02
2019-02-27T22:07:45.396Z,100562.35
2019-02-27T22:10:19.064Z,100562.81
2019-02-27T22:12:44.940Z,100553.64
2019-02-27T22:15:23.229Z,100559.18
2019-02-27T22:17:55.134Z,100556.85
2019-02-27T22:20:25.939Z,100557.44
2019-02-27T22:22:54.192Z,100552.20
2019-02-27T22:25:23.197Z,100547.25
2019-02-27T22:27:53.132Z,100556.75
2019-02-27T22:30:21.196Z,100551.80
2019-02-27T22:32:49.941Z,100549.47
2019-02-27T22:35:18.555Z,100550.61
2019-02-27T22:37:51.085Z,100548.12
2019-02-27T22:40:17.520Z,100546.77
2019-02-27T22:42:48.618Z,100547.74
2019-02-27T22:45:17.263Z,100547.70
2019-02-27T22:47:45.480Z,100540.98
2019-02-27T22:50:14.719Z,100538.98
2019-02-27T22:52:42.782Z,100536.53
2019-02-27T22:55:11.096Z,100536.69
2019-02-27T22:57:40.207Z,100542.91
2019-02-27T23:01:03.750Z,100537.01
2019-02-27T23:03:44.549Z,100544.66
2019-02-27T23:06:13.024Z,100548.05
2019-02-27T23:08:41.837Z,100543.41
2019-02-27T23:11:09.991Z,100546.03
2019-02-27T23:13:38.263Z,100537.52
2019-02-27T23:16:06.616Z,100546.68
2019-02-27T23:18:37.357Z,100538.63
2019-02-27T23:21:05.856Z,100538.63
2019-02-27T23:23:36.746Z,100535.99
2019-02-27T23:26:05.530Z,100540.56
2019-02-27T23:28:34.870Z,100530.88
2019-02-27T23:31:04.187Z,100526.28
2019-02-27T23:33:35.836Z,100527.72
2019-02-27T23:36:02.394Z,100528.69
2019-02-27T23:38:30.774Z,100527.17
2019-02-27T23:40:58.856Z,100526.17
2019-02-27T23:43:27.237Z,100523.72
2019-02-27T23:45:55.294Z,100530.21
2019-02-27T23:48:23.371Z,100523.01
2019-02-27T23:50:51.465Z,100523.78
2019-02-27T23:53:19.568Z,100521.97
2019-02-27T23:55:47.703Z,100513.73
2019-02-27T23:58:15.752Z,100513.25
